createdAt,value
2023-03-28T00:01:03.969Z,3.30
2023-03-28T00:03:35.789Z,3.30
2023-03-28T00:06:09.751Z,3.20
2023-03-28T00:08:40.257Z,3.20
2023-03-28T00:11:10.392Z,3.20
2023-03-28T00:13:38.997Z,3.20
2023-03-28T00:16:12.690Z,3.20
2023-03-28T00:18:42.683Z,3.20
2023-03-28T00:21:23.497Z,3.20
2023-03-28T00:23:53.480Z,3.10
2023-03-28T00:26:22.314Z,3.10
2023-03-28T00:28:51.894Z,3.10
2023-03-28T00:31:21.765Z,3.10
2023-03-28T00:33:49.866Z,3.20
2023-03-28T00:36:22.959Z,3.10
2023-03-28T00:38:52.268Z,3.20
2023-03-28T00:41:21.875Z,3.20
2023-03-28T00:43:52.126Z,3.20
2023-03-28T00:46:26.345Z,3.20
2023-03-28T00:48:57.641Z,3.10
2023-03-28T00:51:31.398Z,3.10
2023-03-28T00:54:01.932Z,3.10
2023-03-28T00:56:35.596Z,3.00
2023-03-28T00:59:08.350Z,3.00
2023-03-28T01:01:37.887Z,3.00
2023-03-28T01:04:06.895Z,3.00
2023-03-28T01:06:38.372Z,2.90
2023-03-28T01:09:09.105Z,2.90
2023-03-28T01:11:40.447Z,2.90
2023-03-28T01:14:13.305Z,2.90
2023-03-28T01:16:43.347Z,2.80
2023-03-28T01:19:26.636Z,2.80
2023-03-28T01:22:56.841Z,2.80
2023-03-28T01:25:53.410Z,2.80
2023-03-28T01:28:37.293Z,2.80
2023-03-28T01:31:31.182Z,2.70
2023-03-28T01:34:30.359Z,2.70
2023-03-28T01:37:11.988Z,2.70
2023-03-28T01:40:06.160Z,2.70
2023-03-28T01:42:44.238Z,2.60
2023-03-28T01:45:19.192Z,2.70
2023-03-28T01:47:53.234Z,2.70
2023-03-28T01:50:28.096Z,2.60
2023-03-28T01:53:04.370Z,2.60
2023-03-28T01:55:41.600Z,2.60
2023-03-28T01:58:24.068Z,2.60
2023-03-28T02:00:57.192Z,2.60
2023-03-28T02:03:29.908Z,2.60
2023-03-28T02:06:03.263Z,2.60
2023-03-28T02:08:38.503Z,2.60
2023-03-28T02:11:07.474Z,2.60
2023-03-28T02:13:41.344Z,2.60
2023-03-28T02:16:13.879Z,2.50
2023-03-28T02:18:47.217Z,2.50
2023-03-28T02:21:20.437Z,2.50
2023-03-28T02:23:53.174Z,2.50
2023-03-28T02:26:22.837Z,2.60
2023-03-28T02:28:54.047Z,2.40
2023-03-28T02:31:23.957Z,2.40
2023-03-28T02:33:53.386Z,2.40
2023-03-28T02:36:41.710Z,2.40
2023-03-28T02:39:36.651Z,2.40
2023-03-28T02:42:36.991Z,2.40
2023-03-28T02:45:27.451Z,2.40
2023-03-28T02:48:04.628Z,2.30
2023-03-28T02:50:39.168Z,2.40
2023-03-28T02:53:13.642Z,2.30
2023-03-28T02:55:57.498Z,2.30
2023-03-28T02:58:30.810Z,2.30
2023-03-28T03:00:58.960Z,2.30
2023-03-28T03:03:36.187Z,2.30
2023-03-28T03:06:04.878Z,2.30
2023-03-28T03:08:33.352Z,2.30
2023-03-28T03:11:02.998Z,2.30
2023-03-28T03:13:31.523Z,2.20
2023-03-28T03:16:00.519Z,2.20
2023-03-28T03:18:28.978Z,2.20
2023-03-28T03:21:20.565Z,2.20
2023-03-28T03:23:52.314Z,2.20
2023-03-28T03:26:24.920Z,2.20
2023-03-28T03:28:53.257Z,2.20
2023-03-28T03:31:21.646Z,2.20
2023-03-28T03:33:51.674Z,2.20
2023-03-28T03:36:20.468Z,2.20
2023-03-28T03:38:48.734Z,2.20
2023-03-28T03:41:17.050Z,2.10
2023-03-28T03:43:47.831Z,2.10
2023-03-28T03:46:17.801Z,2.20
2023-03-28T03:48:49.245Z,2.10
2023-03-28T03:51:18.981Z,2.10
2023-03-28T03:53:50.840Z,2.10
2023-03-28T03:56:19.523Z,2.00
2023-03-28T03:58:50.790Z,2.10
2023-03-28T04:01:18.819Z,2.00
2023-03-28T04:03:48.260Z,2.00
2023-03-28T04:06:16.447Z,2.00
2023-03-28T04:08:44.602Z,2.00
2023-03-28T04:11:12.917Z,1.90
2023-03-28T04:13:41.261Z,1.90
2023-03-28T04:16:15.750Z,1.90
2023-03-28T04:19:06.011Z,1.90
2023-03-28T04:21:44.077Z,1.90
2023-03-28T04:24:15.978Z,1.90
2023-03-28T04:26:46.072Z,1.90
2023-03-28T04:29:14.197Z,1.80
2023-03-28T04:31:49.954Z,1.90
2023-03-28T04:34:20.133Z,1.90
2023-03-28T04:36:48.190Z,1.80
2023-03-28T04:39:16.235Z,1.80
2023-03-28T04:41:46.235Z,1.80
2023-03-28T04:44:16.125Z,1.80
2023-03-28T04:46:46.688Z,1.80
2023-03-28T04:49:15.170Z,1.80
2023-03-28T04:51:43.300Z,1.80
2023-03-28T04:54:11.420Z,1.80
2023-03-28T04:56:39.875Z,1.80
2023-03-28T04:59:08.777Z,1.80
2023-03-28T05:01:41.468Z,1.70
2023-03-28T05:04:14.521Z,1.80
2023-03-28T05:06:42.623Z,1.80
2023-03-28T05:09:11.436Z,1.80
2023-03-28T05:11:40.835Z,1.80
2023-03-28T05:14:09.093Z,1.90
2023-03-28T05:16:40.416Z,1.90
2023-03-28T05:19:11.734Z,1.90
2023-03-28T05:21:42.287Z,1.90
2023-03-28T05:24:13.353Z,2.00
2023-03-28T05:26:41.491Z,2.00
2023-03-28T05:29:10.014Z,2.10
2023-03-28T05:31:39.109Z,2.10
2023-03-28T05:34:10.894Z,2.20
2023-03-28T05:36:40.497Z,2.30
2023-03-28T05:39:12.093Z,2.40
2023-03-28T05:41:43.930Z,2.50
2023-03-28T05:44:12.998Z,2.60
2023-03-28T05:46:43.938Z,2.70
2023-03-28T05:49:13.395Z,2.80
2023-03-28T05:51:43.288Z,2.90
2023-03-28T05:54:12.211Z,3.00
2023-03-28T05:56:40.673Z,3.10
2023-03-28T05:59:09.210Z,3.20
2023-03-28T06:01:37.286Z,3.30
2023-03-28T06:04:05.689Z,3.30
2023-03-28T06:06:34.542Z,3.40
2023-03-28T06:12:17.652Z,3.60
2023-03-28T06:14:45.794Z,3.70
2023-03-28T06:17:14.122Z,3.80
2023-03-28T06:19:42.389Z,3.80
2023-03-28T06:25:58.984Z,4.00
2023-03-28T06:28:28.524Z,4.40
2023-03-28T06:30:56.606Z,4.80
2023-03-28T06:33:24.625Z,5.10
2023-03-28T06:35:52.649Z,5.20
2023-03-28T06:38:20.654Z,5.40
2023-03-28T06:40:48.672Z,5.50
2023-03-28T06:43:16.596Z,5.60
2023-03-28T06:45:45.947Z,5.70
2023-03-28T06:48:22.999Z,6.10
2023-03-28T06:50:51.029Z,6.40
2023-03-28T06:53:20.016Z,6.70
2023-03-28T06:55:50.159Z,6.80
2023-03-28T06:58:18.247Z,6.80
2023-03-28T07:00:47.667Z,6.50
2023-03-28T07:03:15.940Z,6.40
2023-03-28T07:05:44.409Z,6.30
2023-03-28T07:08:14.092Z,6.40
2023-03-28T07:10:43.074Z,7.10
2023-03-28T07:13:18.239Z,9.30
2023-03-28T07:16:01.553Z,11.90
2023-03-28T07:18:31.043Z,12.90
2023-03-28T07:21:06.827Z,12.80
2023-03-28T07:23:47.890Z,13.00
2023-03-28T07:26:21.198Z,13.90
2023-03-28T07:28:49.655Z,15.60
2023-03-28T07:31:21.597Z,16.30
2023-03-28T07:33:53.997Z,16.30
2023-03-28T07:36:23.569Z,16.50
2023-03-28T07:38:51.768Z,16.80
2023-03-28T07:41:28.588Z,17.20
2023-03-28T07:43:57.034Z,17.70
2023-03-28T07:46:26.401Z,17.40
2023-03-28T07:48:55.930Z,16.50
2023-03-28T07:51:24.466Z,16.20
2023-03-28T07:53:52.452Z,15.50
2023-03-28T07:56:20.357Z,14.70
2023-03-28T07:58:48.495Z,14.70
2023-03-28T08:01:18.699Z,15.40
2023-03-28T08:03:48.173Z,16.50
2023-03-28T08:06:31.076Z,16.80
2023-03-28T08:09:00.668Z,17.40
2023-03-28T08:11:30.502Z,17.40
2023-03-28T08:13:58.632Z,17.10
2023-03-28T08:16:26.985Z,16.50
2023-03-28T08:19:10.069Z,15.70
2023-03-28T08:21:40.193Z,15.20
2023-03-28T08:24:12.059Z,14.40
2023-03-28T08:26:45.089Z,13.90
2023-03-28T08:29:14.123Z,13.80
2023-03-28T08:31:42.114Z,13.70
2023-03-28T08:34:11.608Z,13.80
2023-03-28T08:36:39.658Z,14.10
2023-03-28T08:39:07.845Z,14.20
2023-03-28T08:41:48.409Z,14.20
2023-03-28T08:44:29.552Z,14.10
2023-03-28T08:47:03.161Z,14.10
2023-03-28T08:49:36.029Z,14.70
2023-03-28T08:52:07.892Z,14.90
2023-03-28T08:54:44.171Z,14.40
2023-03-28T08:57:18.185Z,14.00
2023-03-28T08:59:54.531Z,13.60
2023-03-28T09:02:24.815Z,13.50
2023-03-28T09:05:05.110Z,13.50
2023-03-28T09:07:49.718Z,13.90
2023-03-28T09:13:36.922Z,14.60
2023-03-28T09:16:26.731Z,15.10
2023-03-28T09:19:16.266Z,15.30
2023-03-28T09:22:12.500Z,15.80
2023-03-28T09:28:40.140Z,15.90
2023-03-28T09:31:11.599Z,17.50
2023-03-28T09:33:43.106Z,16.90
2023-03-28T09:36:14.594Z,15.90
2023-03-28T09:38:49.171Z,15.80
2023-03-28T09:41:23.506Z,16.70
2023-03-28T09:43:57.237Z,18.00
2023-03-28T09:46:32.630Z,17.80
2023-03-28T09:49:01.209Z,16.40
2023-03-28T09:51:29.763Z,14.80
2023-03-28T09:53:59.294Z,13.90
2023-03-28T09:56:31.187Z,14.10
2023-03-28T09:59:01.920Z,13.90
2023-03-28T10:01:38.537Z,13.40
2023-03-28T10:04:12.338Z,13.00
2023-03-28T10:06:41.876Z,12.40
2023-03-28T10:09:18.685Z,12.10
2023-03-28T10:11:54.638Z,11.80
2023-03-28T10:14:34.807Z,11.70
2023-03-28T10:17:07.088Z,12.20
2023-03-28T10:19:38.485Z,12.70
2023-03-28T10:22:08.785Z,13.70
2023-03-28T10:24:39.810Z,15.30
2023-03-28T10:27:14.775Z,17.00
2023-03-28T10:29:44.037Z,18.50
2023-03-28T10:32:15.241Z,18.40
2023-03-28T10:34:43.386Z,17.70
2023-03-28T10:37:33.165Z,16.60
2023-03-28T10:40:07.198Z,15.70
2023-03-28T10:42:43.830Z,14.80
2023-03-28T10:45:24.080Z,15.00
2023-03-28T10:47:54.837Z,16.10
2023-03-28T10:50:28.637Z,17.10
2023-03-28T10:53:10.977Z,16.90
2023-03-28T10:55:48.325Z,16.20
2023-03-28T10:58:23.743Z,15.50
2023-03-28T11:00:57.256Z,15.00
2023-03-28T11:03:43.224Z,15.40
2023-03-28T11:06:18.493Z,16.20
2023-03-28T11:08:58.725Z,16.20
2023-03-28T11:11:40.560Z,15.70
2023-03-28T11:14:21.240Z,15.60
2023-03-28T11:16:57.230Z,16.10
2023-03-28T11:19:39.727Z,17.00
2023-03-28T11:22:21.413Z,17.20
2023-03-28T11:24:55.162Z,16.80
2023-03-28T11:27:32.953Z,16.20
2023-03-28T11:30:05.516Z,15.50
2023-03-28T11:32:42.318Z,14.60
2023-03-28T11:35:17.130Z,14.00
2023-03-28T11:37:51.276Z,13.60
2023-03-28T11:40:24.847Z,13.10
2023-03-28T11:42:58.202Z,13.00
2023-03-28T11:45:46.761Z,13.40
2023-03-28T11:48:24.263Z,13.90
2023-03-28T11:51:02.086Z,13.60
2023-03-28T11:53:34.478Z,13.30
2023-03-28T11:56:09.492Z,12.90
2023-03-28T11:58:44.848Z,12.70
2023-03-28T12:01:17.749Z,12.80
2023-03-28T12:03:56.494Z,13.00
2023-03-28T12:06:28.380Z,13.00
2023-03-28T12:09:00.151Z,13.00
2023-03-28T12:11:36.625Z,13.10
2023-03-28T12:14:18.259Z,13.00
2023-03-28T12:16:50.145Z,12.90
2023-03-28T12:19:27.764Z,12.80
2023-03-28T12:22:00.982Z,12.80
2023-03-28T12:24:37.506Z,12.80
2023-03-28T12:27:12.902Z,12.60
2023-03-28T12:29:48.954Z,12.40
2023-03-28T12:32:35.396Z,12.40
2023-03-28T12:35:13.038Z,12.60
2023-03-28T12:37:54.783Z,12.80
2023-03-28T12:40:29.268Z,12.90
2023-03-28T12:42:59.423Z,12.90
2023-03-28T12:45:31.650Z,12.80
2023-03-28T12:48:06.582Z,12.80
2023-03-28T12:50:51.627Z,12.60
2023-03-28T12:53:21.918Z,12.60
2023-03-28T12:55:51.568Z,12.60
2023-03-28T12:58:26.144Z,12.50
2023-03-28T13:01:14.682Z,12.50
2023-03-28T13:03:53.841Z,12.70
2023-03-28T13:06:47.799Z,12.90
2023-03-28T13:09:45.031Z,12.80
2023-03-28T13:12:46.623Z,12.70
2023-03-28T13:15:30.912Z,12.60
2023-03-28T13:18:31.915Z,12.40
2023-03-28T13:21:01.611Z,12.10
2023-03-28T13:23:33.214Z,11.90
2023-03-28T13:26:03.555Z,11.80
2023-03-28T13:28:34.734Z,11.70
2023-03-28T13:31:08.526Z,11.60
2023-03-28T13:33:39.422Z,11.50
2023-03-28T13:36:19.102Z,11.30
2023-03-28T13:38:50.351Z,11.30
2023-03-28T13:41:36.168Z,11.10
2023-03-28T13:44:07.562Z,10.90
2023-03-28T13:46:40.519Z,10.80
2023-03-28T13:49:19.183Z,10.90
2023-03-28T13:51:52.561Z,10.90
2023-03-28T13:54:21.185Z,11.00
2023-03-28T13:56:50.156Z,11.00
2023-03-28T13:59:22.358Z,10.90
2023-03-28T14:01:53.878Z,10.80
2023-03-28T14:04:25.864Z,10.80
2023-03-28T14:06:54.982Z,10.90
2023-03-28T14:09:31.222Z,10.90
2023-03-28T14:12:01.986Z,11.00
2023-03-28T14:14:33.533Z,11.00
2023-03-28T14:17:02.649Z,10.90
2023-03-28T14:19:37.630Z,11.00
2023-03-28T14:22:08.670Z,11.00
2023-03-28T14:24:37.347Z,11.00
2023-03-28T14:27:11.177Z,11.10
2023-03-28T14:29:53.567Z,11.10
2023-03-28T14:32:26.771Z,11.00
2023-03-28T14:34:57.049Z,10.90
2023-03-28T14:37:25.705Z,10.80
2023-03-28T14:39:54.392Z,10.70
2023-03-28T14:42:24.389Z,10.70
2023-03-28T14:44:55.211Z,10.70
2023-03-28T14:47:28.972Z,10.70
2023-03-28T14:50:00.707Z,10.60
2023-03-28T14:52:32.653Z,10.60
2023-03-28T14:55:01.792Z,10.60
2023-03-28T14:57:31.165Z,10.70
2023-03-28T14:59:59.384Z,10.70
2023-03-28T15:02:32.552Z,10.60
2023-03-28T15:05:07.045Z,10.60
2023-03-28T15:07:36.527Z,10.50
2023-03-28T15:10:10.620Z,10.40
2023-03-28T15:12:46.245Z,10.40
2023-03-28T15:15:21.665Z,10.30
2023-03-28T15:17:50.998Z,10.30
2023-03-28T15:20:24.836Z,10.30
2023-03-28T15:22:56.807Z,10.20
2023-03-28T15:25:26.170Z,10.00
2023-03-28T15:27:58.647Z,10.00
2023-03-28T15:30:27.776Z,10.00
2023-03-28T15:33:13.513Z,10.10
2023-03-28T15:36:04.792Z,10.20
2023-03-28T15:38:33.826Z,10.30
2023-03-28T15:41:19.317Z,10.40
2023-03-28T15:43:59.639Z,10.30
2023-03-28T15:46:33.273Z,10.50
2023-03-28T15:49:03.139Z,10.60
2023-03-28T15:51:38.533Z,10.70
2023-03-28T15:54:07.229Z,10.80
2023-03-28T15:56:41.151Z,10.90
2023-03-28T15:59:14.585Z,11.00
2023-03-28T16:01:42.478Z,11.00
2023-03-28T16:04:24.679Z,11.00
2023-03-28T16:06:58.541Z,10.90
2023-03-28T16:09:27.517Z,10.90
2023-03-28T16:12:00.855Z,10.80
2023-03-28T16:14:28.987Z,10.70
2023-03-28T16:16:58.186Z,10.60
2023-03-28T16:19:28.654Z,10.40
2023-03-28T16:22:00.931Z,10.40
2023-03-28T16:24:29.338Z,10.40
2023-03-28T16:26:57.680Z,10.40
2023-03-28T16:29:25.639Z,10.40
2023-03-28T16:31:53.741Z,10.40
2023-03-28T16:34:21.774Z,10.40
2023-03-28T16:36:49.723Z,10.40
2023-03-28T16:39:19.097Z,10.40
2023-03-28T16:41:47.202Z,10.40
2023-03-28T16:44:15.127Z,10.40
2023-03-28T16:46:43.261Z,10.30
2023-03-28T16:49:11.436Z,10.30
2023-03-28T16:51:39.483Z,10.20
2023-03-28T16:54:16.947Z,10.10
2023-03-28T16:59:28.606Z,9.70
2023-03-28T17:01:57.205Z,9.60
2023-03-28T17:04:26.430Z,9.60
2023-03-28T17:06:55.749Z,9.50
2023-03-28T17:09:23.659Z,9.40
2023-03-28T17:11:53.055Z,9.20
2023-03-28T17:14:21.010Z,9.00
2023-03-28T17:16:48.942Z,8.90
2023-03-28T17:19:23.112Z,8.80
2023-03-28T17:21:51.584Z,8.70
2023-03-28T17:24:22.958Z,8.60
2023-03-28T17:26:57.910Z,8.50
2023-03-28T17:29:43.832Z,8.40
2023-03-28T17:32:11.938Z,8.40
2023-03-28T17:34:39.854Z,8.40
2023-03-28T17:37:07.781Z,8.40
2023-03-28T17:39:39.905Z,8.40
2023-03-28T17:42:09.682Z,8.30
2023-03-28T17:44:37.776Z,8.20
2023-03-28T17:47:05.878Z,8.20
2023-03-28T17:49:33.780Z,8.20
2023-03-28T17:52:02.228Z,8.10
2023-03-28T17:54:31.129Z,8.00
2023-03-28T17:56:59.273Z,8.00
2023-03-28T17:59:29.292Z,7.90
2023-03-28T18:01:57.536Z,7.80
2023-03-28T18:04:25.667Z,7.80
2023-03-28T18:06:53.705Z,7.80
2023-03-28T18:09:21.823Z,7.70
2023-03-28T18:11:50.010Z,7.60
2023-03-28T18:14:18.028Z,7.60
2023-03-28T18:16:48.950Z,7.50
2023-03-28T18:19:18.615Z,7.60
2023-03-28T18:21:47.165Z,7.40
2023-03-28T18:24:15.279Z,7.50
2023-03-28T18:26:43.445Z,7.50
2023-03-28T18:29:11.689Z,7.40
2023-03-28T18:31:41.650Z,7.30
2023-03-28T18:34:12.108Z,7.30
2023-03-28T18:36:42.311Z,7.20
2023-03-28T18:39:11.019Z,7.20
2023-03-28T18:41:39.840Z,7.20
2023-03-28T18:44:07.984Z,7.10
2023-03-28T18:46:36.113Z,7.00
2023-03-28T18:49:04.136Z,7.00
2023-03-28T18:51:33.968Z,7.00
2023-03-28T18:54:01.998Z,7.00
2023-03-28T18:56:30.135Z,7.00
2023-03-28T18:58:58.375Z,7.00
2023-03-28T19:01:29.923Z,6.90
2023-03-28T19:03:58.410Z,6.90
2023-03-28T19:06:28.413Z,7.00
2023-03-28T19:08:57.921Z,7.00
2023-03-28T19:11:26.397Z,7.00
2023-03-28T19:13:55.226Z,7.00
2023-03-28T19:16:23.418Z,7.10
2023-03-28T19:18:54.446Z,7.10
2023-03-28T19:21:25.842Z,7.00
2023-03-28T19:23:54.194Z,7.00
2023-03-28T19:26:24.371Z,7.00
2023-03-28T19:28:53.818Z,7.00
2023-03-28T19:31:24.162Z,6.90
2023-03-28T19:33:52.624Z,7.00
2023-03-28T19:36:20.992Z,6.80
2023-03-28T19:38:49.291Z,6.80
2023-03-28T19:41:19.695Z,6.80
2023-03-28T19:43:51.182Z,6.90
2023-03-28T19:46:31.699Z,6.70
2023-03-28T19:49:03.792Z,6.70
2023-03-28T19:51:32.082Z,6.70
2023-03-28T19:54:00.267Z,6.60
2023-03-28T19:56:28.318Z,6.60
2023-03-28T19:58:57.753Z,6.50
2023-03-28T20:01:25.821Z,6.50
2023-03-28T20:03:56.202Z,6.50
2023-03-28T20:06:24.684Z,6.50
2023-03-28T20:08:53.181Z,6.50
2023-03-28T20:11:22.116Z,6.50
2023-03-28T20:13:50.165Z,6.50
2023-03-28T20:16:19.846Z,6.50
2023-03-28T20:18:48.343Z,6.50
2023-03-28T20:21:16.813Z,6.50
2023-03-28T20:23:45.123Z,6.60
2023-03-28T20:26:16.171Z,6.60
2023-03-28T20:28:46.855Z,6.60
2023-03-28T20:31:14.931Z,6.60
2023-03-28T20:33:45.087Z,6.60
2023-03-28T20:36:13.803Z,6.60
2023-03-28T20:38:41.877Z,6.60
2023-03-28T20:41:13.444Z,6.50
2023-03-28T20:43:46.697Z,6.40
2023-03-28T20:46:18.331Z,6.40
2023-03-28T20:48:53.057Z,6.40
2023-03-28T20:51:22.453Z,6.30
2023-03-28T20:53:54.443Z,6.30
2023-03-28T20:56:23.575Z,6.20
2023-03-28T20:59:01.044Z,6.20
2023-03-28T21:01:32.833Z,6.20
2023-03-28T21:04:02.770Z,6.20
2023-03-28T21:06:34.692Z,6.10
2023-03-28T21:09:05.586Z,6.10
2023-03-28T21:11:38.997Z,6.10
2023-03-28T21:14:14.881Z,6.00
2023-03-28T21:16:46.915Z,6.10
2023-03-28T21:19:33.372Z,6.00
2023-03-28T21:22:04.988Z,5.90
2023-03-28T21:24:33.053Z,5.90
2023-03-28T21:27:01.896Z,5.90
2023-03-28T21:29:30.196Z,5.90
2023-03-28T21:31:58.438Z,6.00
2023-03-28T21:34:30.871Z,6.00
2023-03-28T21:37:14.474Z,6.00
2023-03-28T21:42:41.112Z,6.00
2023-03-28T21:48:09.152Z,6.10
2023-03-28T21:50:38.992Z,6.10
2023-03-28T21:53:09.109Z,6.00
2023-03-28T21:55:37.212Z,6.10
2023-03-28T21:58:05.388Z,6.00
2023-03-28T22:00:34.016Z,6.00
2023-03-28T22:03:02.093Z,6.00
2023-03-28T22:05:30.268Z,5.90
2023-03-28T22:07:58.319Z,5.90
2023-03-28T22:10:29.456Z,6.00
2023-03-28T22:12:59.194Z,5.80
2023-03-28T22:15:27.576Z,5.80
2023-03-28T22:17:58.290Z,5.80
2023-03-28T22:20:28.375Z,5.90
2023-03-28T22:23:01.170Z,5.90
2023-03-28T22:25:34.756Z,5.80
2023-03-28T22:28:04.088Z,5.80
2023-03-28T22:30:32.515Z,5.80
2023-03-28T22:33:00.706Z,5.90
2023-03-28T22:35:28.742Z,5.80
2023-03-28T22:37:56.910Z,5.80
2023-03-28T22:40:24.928Z,5.90
2023-03-28T22:42:54.836Z,5.80
2023-03-28T22:45:22.909Z,5.70
2023-03-28T22:47:51.184Z,5.70
2023-03-28T22:50:20.048Z,5.60
2023-03-28T22:52:50.125Z,5.70
2023-03-28T22:55:18.769Z,5.60
2023-03-28T22:57:47.790Z,5.60
2023-03-28T23:00:17.865Z,5.70
2023-03-28T23:02:46.712Z,5.70
2023-03-28T23:05:14.853Z,5.70
2023-03-28T23:07:42.936Z,5.60
2023-03-28T23:10:15.400Z,5.60
2023-03-28T23:12:43.744Z,5.70
2023-03-28T23:15:12.447Z,5.70
2023-03-28T23:17:42.775Z,5.70
2023-03-28T23:20:14.491Z,5.80
2023-03-28T23:22:43.661Z,5.80
2023-03-28T23:25:12.852Z,5.80
2023-03-28T23:27:41.724Z,5.80
2023-03-28T23:30:11.251Z,5.90
2023-03-28T23:32:39.349Z,5.80
2023-03-28T23:35:10.830Z,5.70
2023-03-28T23:37:39.115Z,5.70
2023-03-28T23:40:14.447Z,5.70
2023-03-28T23:42:44.434Z,5.70
2023-03-28T23:45:13.955Z,5.60
2023-03-28T23:47:42.128Z,5.60
2023-03-28T23:50:12.831Z,5.70
2023-03-28T23:52:40.890Z,5.70
2023-03-28T23:55:09.952Z,5.80
2023-03-28T23:57:38.210Z,5.90
